createdAt,value
2022-09-14T00:01:46.980Z,12.08
2022-09-14T00:04:18.104Z,11.83
2022-09-14T00:06:48.192Z,12.18
2022-09-14T00:09:18.723Z,12.03
2022-09-14T00:11:48.038Z,11.86
2022-09-14T00:14:17.320Z,12.08
2022-09-14T00:16:48.474Z,12.27
2022-09-14T00:19:20.559Z,12.23
2022-09-14T00:21:53.051Z,12.48
2022-09-14T00:24:23.068Z,12.19
2022-09-14T00:26:52.069Z,11.84
2022-09-14T00:29:21.223Z,12.10
2022-09-14T00:31:51.787Z,12.08
2022-09-14T00:34:21.617Z,12.01
2022-09-14T00:36:52.721Z,12.41
2022-09-14T00:39:24.912Z,12.24
2022-09-14T00:41:54.422Z,12.10
2022-09-14T00:45:00.733Z,12.01
2022-09-14T00:47:33.120Z,11.98
2022-09-14T00:50:05.603Z,12.16
2022-09-14T00:52:38.447Z,12.40
2022-09-14T00:55:10.194Z,12.03
2022-09-14T00:57:42.909Z,12.35
2022-09-14T01:00:14.892Z,12.17
2022-09-14T01:02:45.536Z,12.43
2022-09-14T01:05:15.593Z,12.35
2022-09-14T01:08:02.075Z,12.15
2022-09-14T01:10:44.770Z,12.11
2022-09-14T01:13:26.751Z,12.03
2022-09-14T01:16:04.270Z,12.18
2022-09-14T01:18:39.247Z,12.09
2022-09-14T01:21:11.953Z,12.30
2022-09-14T01:23:48.795Z,12.31
2022-09-14T01:26:55.355Z,12.20
2022-09-14T01:29:32.077Z,12.15
2022-09-14T01:32:07.789Z,12.08
2022-09-14T01:34:45.157Z,12.15
2022-09-14T01:37:19.809Z,11.94
2022-09-14T01:39:53.242Z,12.28
2022-09-14T01:42:25.663Z,12.25
2022-09-14T01:45:00.235Z,12.11
2022-09-14T01:47:36.027Z,12.22
2022-09-14T01:50:09.744Z,12.16
2022-09-14T01:52:44.378Z,11.91
2022-09-14T01:55:19.708Z,12.50
2022-09-14T01:57:53.097Z,12.15
2022-09-14T02:00:24.205Z,12.35
2022-09-14T02:02:56.328Z,12.20
2022-09-14T02:05:32.792Z,12.49
2022-09-14T02:08:02.220Z,12.25
2022-09-14T02:10:31.418Z,12.44
2022-09-14T02:13:01.043Z,12.58
2022-09-14T02:15:31.280Z,12.41
2022-09-14T02:18:00.000Z,12.64
2022-09-14T02:20:32.585Z,12.60
2022-09-14T02:23:01.605Z,12.57
2022-09-14T02:25:32.257Z,12.41
2022-09-14T02:28:00.923Z,12.40
2022-09-14T02:30:34.846Z,12.66
2022-09-14T02:33:16.578Z,12.53
2022-09-14T02:35:50.172Z,12.51
2022-09-14T02:38:31.778Z,12.53
2022-09-14T02:41:11.131Z,11.89
2022-09-14T02:43:47.043Z,12.21
2022-09-14T02:46:21.949Z,12.39
2022-09-14T02:48:59.069Z,12.36
2022-09-14T02:51:33.233Z,12.22
2022-09-14T02:54:06.725Z,12.47
2022-09-14T02:56:37.613Z,12.24
2022-09-14T02:59:06.530Z,12.31
2022-09-14T03:01:36.771Z,12.04
2022-09-14T03:04:05.889Z,12.20
2022-09-14T03:06:34.666Z,11.97
2022-09-14T03:09:03.919Z,11.95
2022-09-14T03:11:32.825Z,11.90
2022-09-14T03:14:01.644Z,12.06
2022-09-14T03:16:30.516Z,11.97
2022-09-14T03:19:00.730Z,12.05
2022-09-14T03:21:29.493Z,11.97
2022-09-14T03:23:58.178Z,11.93
2022-09-14T03:26:29.177Z,12.13
2022-09-14T03:28:59.472Z,12.28
2022-09-14T03:31:28.316Z,12.28
2022-09-14T03:33:58.764Z,12.63
2022-09-14T03:36:31.473Z,12.44
2022-09-14T03:39:03.001Z,12.79
2022-09-14T03:41:31.687Z,12.74
2022-09-14T03:44:00.460Z,11.95
2022-09-14T03:46:29.323Z,12.18
2022-09-14T03:48:58.154Z,12.43
2022-09-14T03:51:28.578Z,12.32
2022-09-14T03:53:57.354Z,12.36
2022-09-14T03:56:26.200Z,12.17
2022-09-14T03:58:55.148Z,12.36
2022-09-14T04:01:24.792Z,12.26
2022-09-14T04:03:53.942Z,12.27
2022-09-14T04:06:22.774Z,11.91
2022-09-14T04:08:52.922Z,11.98
2022-09-14T04:11:24.841Z,12.02
2022-09-14T04:13:54.360Z,12.10
2022-09-14T04:16:23.674Z,11.83
2022-09-14T04:18:53.265Z,11.65
2022-09-14T04:21:23.368Z,12.10
2022-09-14T04:24:15.114Z,12.00
2022-09-14T04:26:44.887Z,11.99
2022-09-14T04:29:14.823Z,12.32
2022-09-14T04:31:44.789Z,12.43
2022-09-14T04:34:14.842Z,12.47
2022-09-14T04:36:43.939Z,12.73
2022-09-14T04:39:15.329Z,12.67
2022-09-14T04:41:44.607Z,12.08
2022-09-14T04:44:13.779Z,12.38
2022-09-14T04:46:46.646Z,12.56
2022-09-14T04:49:16.720Z,12.86
2022-09-14T04:51:46.108Z,12.55
2022-09-14T04:54:18.256Z,12.46
2022-09-14T04:56:47.556Z,12.51
2022-09-14T04:59:17.080Z,12.50
2022-09-14T05:01:48.894Z,12.22
2022-09-14T05:04:17.924Z,12.44
2022-09-14T05:06:47.211Z,12.91
2022-09-14T05:09:19.172Z,12.57
2022-09-14T05:11:49.705Z,12.54
2022-09-14T05:14:18.558Z,13.04
2022-09-14T05:16:48.056Z,12.90
2022-09-14T05:19:18.713Z,13.29
2022-09-14T05:21:48.512Z,12.31
2022-09-14T05:24:20.011Z,12.65
2022-09-14T05:26:49.139Z,12.83
2022-09-14T05:29:19.964Z,12.97
2022-09-14T05:31:49.004Z,13.61
2022-09-14T05:34:18.293Z,14.06
2022-09-14T05:36:48.137Z,14.03
2022-09-14T05:39:23.037Z,13.32
2022-09-14T05:41:53.096Z,13.33
2022-09-14T05:44:21.883Z,13.06
2022-09-14T05:46:50.642Z,13.70
2022-09-14T05:49:19.516Z,14.05
2022-09-14T05:51:48.412Z,13.59
2022-09-14T05:54:18.596Z,14.33
2022-09-14T05:56:48.439Z,14.41
2022-09-14T05:59:17.185Z,14.51
2022-09-14T06:01:47.577Z,14.11
2022-09-14T06:04:16.468Z,13.76
2022-09-14T06:07:01.495Z,14.54
2022-09-14T06:09:36.970Z,15.00
2022-09-14T06:12:05.969Z,15.49
2022-09-14T06:14:34.888Z,14.96
2022-09-14T06:17:05.779Z,14.03
2022-09-14T06:19:34.656Z,14.32
2022-09-14T06:22:03.437Z,14.50
2022-09-14T06:24:32.546Z,15.08
2022-09-14T06:27:02.867Z,15.20
2022-09-14T06:29:32.435Z,13.89
2022-09-14T06:32:01.325Z,14.65
2022-09-14T06:34:30.513Z,15.41
2022-09-14T06:36:59.643Z,15.46
2022-09-14T06:39:28.714Z,14.91
2022-09-14T06:41:57.737Z,15.52
2022-09-14T06:44:31.716Z,15.27
2022-09-14T06:47:00.414Z,15.97
2022-09-14T06:49:29.504Z,15.91
2022-09-14T06:51:58.278Z,15.91
2022-09-14T06:54:27.172Z,15.35
2022-09-14T06:56:56.570Z,15.29
2022-09-14T06:59:26.076Z,14.75
2022-09-14T07:01:56.920Z,15.31
2022-09-14T07:04:26.117Z,15.69
2022-09-14T07:06:55.131Z,15.18
2022-09-14T07:09:24.116Z,16.28
2022-09-14T07:11:54.650Z,17.09
2022-09-14T07:14:23.871Z,16.58
2022-09-14T07:16:52.693Z,16.01
2022-09-14T07:19:23.140Z,16.51
2022-09-14T07:21:53.955Z,15.74
2022-09-14T07:24:23.189Z,15.71
2022-09-14T07:26:52.291Z,16.34
2022-09-14T07:29:22.221Z,16.00
2022-09-14T07:31:53.997Z,16.16
2022-09-14T07:34:25.571Z,16.99
2022-09-14T07:36:54.693Z,17.46
2022-09-14T07:39:23.344Z,16.92
2022-09-14T07:41:51.992Z,16.22
2022-09-14T07:44:20.774Z,15.96
2022-09-14T07:46:49.786Z,16.19
2022-09-14T07:49:19.293Z,15.98
2022-09-14T07:51:50.275Z,16.51
2022-09-14T07:54:19.877Z,16.98
2022-09-14T07:56:49.399Z,17.58
2022-09-14T07:59:35.759Z,17.17
2022-09-14T08:02:07.819Z,17.27
2022-09-14T08:04:37.995Z,16.74
2022-09-14T08:07:09.279Z,17.72
2022-09-14T08:09:39.654Z,18.90
2022-09-14T08:12:08.574Z,18.48
2022-09-14T08:14:37.220Z,17.33
2022-09-14T08:17:06.562Z,17.05
2022-09-14T08:19:35.663Z,16.80
2022-09-14T08:22:05.245Z,16.92
2022-09-14T08:24:35.677Z,17.44
2022-09-14T08:27:04.737Z,17.50
2022-09-14T08:29:33.838Z,17.02
2022-09-14T08:32:03.086Z,16.96
2022-09-14T08:34:31.924Z,16.98
2022-09-14T08:37:00.557Z,17.76
2022-09-14T08:39:29.286Z,17.83
2022-09-14T08:42:01.949Z,17.88
2022-09-14T08:44:38.835Z,18.43
2022-09-14T08:47:13.579Z,17.90
2022-09-14T08:49:48.912Z,18.38
2022-09-14T08:52:25.998Z,17.95
2022-09-14T08:54:57.558Z,18.14
2022-09-14T08:57:39.242Z,17.69
2022-09-14T09:00:12.242Z,17.24
2022-09-14T09:03:21.435Z,17.29
2022-09-14T09:05:54.670Z,17.05
2022-09-14T09:08:32.328Z,17.42
2022-09-14T09:11:05.641Z,17.74
2022-09-14T09:13:39.407Z,17.75
2022-09-14T09:16:11.922Z,17.49
2022-09-14T09:18:46.995Z,16.86
2022-09-14T09:21:18.455Z,17.17
2022-09-14T09:23:47.602Z,16.34
2022-09-14T09:26:24.029Z,16.25
2022-09-14T09:28:58.020Z,16.70
2022-09-14T09:31:33.612Z,17.30
2022-09-14T09:34:32.217Z,16.90
2022-09-14T09:37:28.083Z,16.17
2022-09-14T09:39:56.955Z,16.83
2022-09-14T09:42:28.487Z,16.42
2022-09-14T09:45:03.245Z,16.89
2022-09-14T09:47:36.622Z,16.68
2022-09-14T09:50:17.393Z,16.63
2022-09-14T09:52:51.337Z,16.76
2022-09-14T09:55:22.592Z,17.19
2022-09-14T09:57:51.503Z,17.01
2022-09-14T10:00:26.270Z,16.43
2022-09-14T10:02:57.254Z,16.70
2022-09-14T10:05:31.805Z,17.04
2022-09-14T10:08:02.540Z,16.94
2022-09-14T10:10:44.744Z,16.57
2022-09-14T10:13:30.030Z,16.65
2022-09-14T10:16:16.611Z,17.16
2022-09-14T10:18:49.137Z,16.91
2022-09-14T10:21:20.036Z,16.76
2022-09-14T10:24:04.961Z,16.55
2022-09-14T10:26:36.925Z,16.78
2022-09-14T10:29:35.519Z,16.70
2022-09-14T10:32:17.858Z,16.61
2022-09-14T10:34:47.165Z,16.93
2022-09-14T10:37:29.941Z,16.87
2022-09-14T10:40:13.505Z,16.83
2022-09-14T10:42:50.403Z,16.96
2022-09-14T10:45:24.165Z,17.79
2022-09-14T10:48:23.003Z,17.21
2022-09-14T10:50:59.198Z,17.20
2022-09-14T10:53:44.608Z,17.36
2022-09-14T10:56:20.316Z,17.40
2022-09-14T10:59:10.446Z,17.81
2022-09-14T11:02:04.903Z,17.75
2022-09-14T11:04:58.991Z,17.06
2022-09-14T11:07:31.560Z,17.56
2022-09-14T11:10:06.753Z,17.52
2022-09-14T11:12:43.327Z,17.62
2022-09-14T11:15:25.632Z,17.30
2022-09-14T11:18:13.831Z,17.63
2022-09-14T11:20:54.135Z,17.92
2022-09-14T11:23:35.414Z,18.02
2022-09-14T11:26:10.387Z,18.03
2022-09-14T11:28:43.581Z,18.24
2022-09-14T11:31:17.776Z,18.49
2022-09-14T11:33:53.693Z,19.80
2022-09-14T11:36:28.022Z,19.38
2022-09-14T11:39:06.679Z,19.47
2022-09-14T11:41:44.576Z,19.45
2022-09-14T11:44:17.200Z,19.34
2022-09-14T11:46:50.810Z,19.30
2022-09-14T11:49:23.222Z,18.70
2022-09-14T11:51:57.156Z,18.46
2022-09-14T11:54:26.268Z,18.19
2022-09-14T11:56:59.769Z,17.49
2022-09-14T11:59:54.117Z,18.19
2022-09-14T12:02:49.319Z,18.45
2022-09-14T12:05:36.538Z,18.32
2022-09-14T12:08:38.123Z,18.16
2022-09-14T12:11:25.881Z,18.07
2022-09-14T12:14:31.275Z,18.49
2022-09-14T12:20:40.460Z,19.01
2022-09-14T12:23:27.771Z,18.69
2022-09-14T12:26:38.110Z,18.61
2022-09-14T12:29:35.383Z,18.89
2022-09-14T12:32:27.489Z,18.27
2022-09-14T12:35:38.934Z,17.51
2022-09-14T12:38:44.378Z,17.81
2022-09-14T12:42:02.877Z,17.17
2022-09-14T12:44:37.917Z,17.33
2022-09-14T12:47:40.295Z,17.10
2022-09-14T12:50:16.263Z,17.20
2022-09-14T12:52:58.886Z,17.19
2022-09-14T12:55:57.890Z,17.34
2022-09-14T12:58:52.173Z,17.30
2022-09-14T13:01:36.122Z,17.30
2022-09-14T13:04:06.419Z,16.95
2022-09-14T13:06:42.317Z,17.06
2022-09-14T13:09:18.743Z,17.30
2022-09-14T13:11:55.145Z,17.13
2022-09-14T13:14:26.293Z,16.82
2022-09-14T13:16:57.264Z,16.56
2022-09-14T13:19:27.966Z,17.01
2022-09-14T13:21:58.905Z,17.43
2022-09-14T13:24:32.647Z,17.64
2022-09-14T13:27:04.238Z,17.35
2022-09-14T13:29:33.712Z,17.22
2022-09-14T13:32:04.220Z,16.89
2022-09-14T13:34:37.160Z,16.66
2022-09-14T13:37:06.544Z,16.62
2022-09-14T13:39:38.711Z,16.94
2022-09-14T13:42:11.004Z,16.92
2022-09-14T13:44:45.725Z,16.77
2022-09-14T13:47:17.320Z,16.70
2022-09-14T13:49:47.893Z,16.70
2022-09-14T13:53:00.387Z,16.92
2022-09-14T13:55:29.270Z,17.16
2022-09-14T13:58:23.227Z,16.76
2022-09-14T14:00:55.601Z,16.79
2022-09-14T14:03:30.116Z,16.87
2022-09-14T14:05:59.813Z,16.94
2022-09-14T14:08:37.562Z,16.96
2022-09-14T14:11:07.917Z,16.59
2022-09-14T14:13:39.276Z,17.91
2022-09-14T14:16:16.177Z,18.02
2022-09-14T14:18:52.104Z,17.00
2022-09-14T14:21:30.495Z,16.95
2022-09-14T14:24:25.999Z,19.40
2022-09-14T14:26:57.436Z,22.34
2022-09-14T14:29:27.975Z,21.36
2022-09-14T14:31:57.530Z,19.60
2022-09-14T14:34:31.294Z,22.64
2022-09-14T14:37:02.534Z,24.14
2022-09-14T14:39:32.620Z,22.29
2022-09-14T14:42:02.806Z,20.88
2022-09-14T14:44:33.941Z,19.75
2022-09-14T14:47:02.919Z,20.28
2022-09-14T14:49:32.180Z,20.74
2022-09-14T14:52:01.272Z,20.91
2022-09-14T14:54:30.055Z,20.26
2022-09-14T14:56:59.084Z,20.74
2022-09-14T14:59:30.136Z,19.69
2022-09-14T15:02:00.187Z,19.40
2022-09-14T15:04:29.550Z,19.12
2022-09-14T15:06:58.643Z,19.08
2022-09-14T15:09:29.859Z,19.15
2022-09-14T15:11:58.676Z,19.08
2022-09-14T15:14:27.947Z,19.17
2022-09-14T15:17:00.230Z,19.12
2022-09-14T15:19:30.681Z,20.88
2022-09-14T15:22:01.614Z,20.53
2022-09-14T15:24:30.828Z,19.90
2022-09-14T15:27:00.152Z,18.85
2022-09-14T15:29:29.477Z,18.64
2022-09-14T15:31:58.318Z,18.23
2022-09-14T15:34:27.094Z,17.90
2022-09-14T15:36:58.950Z,17.98
2022-09-14T15:39:30.075Z,17.68
2022-09-14T15:41:59.549Z,17.46
2022-09-14T15:44:28.269Z,17.34
2022-09-14T15:46:57.833Z,17.42
2022-09-14T15:49:27.709Z,17.02
2022-09-14T15:51:59.912Z,16.87
2022-09-14T15:54:35.002Z,16.84
2022-09-14T15:57:06.368Z,16.83
2022-09-14T15:59:36.360Z,16.32
2022-09-14T16:02:05.464Z,16.65
2022-09-14T16:04:37.679Z,16.56
2022-09-14T16:07:10.835Z,16.38
2022-09-14T16:09:41.354Z,16.42
2022-09-14T16:12:12.352Z,16.50
2022-09-14T16:14:41.291Z,16.30
2022-09-14T16:17:11.414Z,16.21
2022-09-14T16:19:40.203Z,16.29
2022-09-14T16:22:10.434Z,16.08
2022-09-14T16:24:39.433Z,16.22
2022-09-14T16:27:08.438Z,16.11
2022-09-14T16:29:37.289Z,15.92
2022-09-14T16:32:06.189Z,15.90
2022-09-14T16:34:39.068Z,15.80
2022-09-14T16:37:08.197Z,15.93
2022-09-14T16:39:38.506Z,15.79
2022-09-14T16:42:08.033Z,15.88
2022-09-14T16:44:37.175Z,15.90
2022-09-14T16:47:06.217Z,15.50
2022-09-14T16:49:37.344Z,15.73
2022-09-14T16:52:06.794Z,15.77
2022-09-14T16:54:35.691Z,15.74
2022-09-14T16:57:06.433Z,15.77
2022-09-14T16:59:35.864Z,15.57
2022-09-14T17:02:05.618Z,15.72
2022-09-14T17:04:35.108Z,15.79
2022-09-14T17:07:04.410Z,15.75
2022-09-14T17:09:34.553Z,15.73
2022-09-14T17:12:05.523Z,15.84
2022-09-14T17:14:35.196Z,15.84
2022-09-14T17:17:04.479Z,15.81
2022-09-14T17:19:35.118Z,15.84
2022-09-14T17:22:05.449Z,15.81
2022-09-14T17:24:34.523Z,15.79
2022-09-14T17:27:03.691Z,15.78
2022-09-14T17:29:38.664Z,15.74
2022-09-14T17:32:12.507Z,15.51
2022-09-14T17:34:44.154Z,15.64
2022-09-14T17:37:13.298Z,15.67
2022-09-14T17:39:42.471Z,15.77
2022-09-14T17:42:12.197Z,15.76
2022-09-14T17:44:43.140Z,15.80
2022-09-14T17:47:12.649Z,15.76
2022-09-14T17:49:41.882Z,15.71
2022-09-14T17:52:11.109Z,15.57
2022-09-14T17:54:40.426Z,15.62
2022-09-14T17:57:09.857Z,15.58
2022-09-14T17:59:39.352Z,15.58
2022-09-14T18:02:13.436Z,15.61
2022-09-14T18:04:48.522Z,15.58
2022-09-14T18:07:18.435Z,15.76
2022-09-14T18:09:47.664Z,15.78
2022-09-14T18:12:18.011Z,15.73
2022-09-14T18:14:47.305Z,15.77
2022-09-14T18:17:20.624Z,15.84
2022-09-14T18:19:57.631Z,15.92
2022-09-14T18:22:26.896Z,15.94
2022-09-14T18:24:56.130Z,16.01
2022-09-14T18:27:26.432Z,15.99
2022-09-14T18:29:59.021Z,16.13
2022-09-14T18:32:30.957Z,16.02
2022-09-14T18:35:02.360Z,16.22
2022-09-14T18:37:33.345Z,16.20
2022-09-14T18:40:04.669Z,16.09
2022-09-14T18:42:35.105Z,16.23
2022-09-14T18:45:04.199Z,16.21
2022-09-14T18:47:35.146Z,16.16
2022-09-14T18:50:05.379Z,16.01
2022-09-14T18:52:37.139Z,16.16
2022-09-14T18:55:07.078Z,16.03
2022-09-14T18:57:36.227Z,15.81
2022-09-14T19:00:06.405Z,15.69
2022-09-14T19:02:37.084Z,15.55
2022-09-14T19:05:07.003Z,15.46
2022-09-14T19:07:37.441Z,15.37
2022-09-14T19:10:11.506Z,15.20
2022-09-14T19:12:40.945Z,15.13
2022-09-14T19:15:11.509Z,15.18
2022-09-14T19:17:42.109Z,15.09
2022-09-14T19:20:12.047Z,15.07
2022-09-14T19:22:40.981Z,15.09
2022-09-14T19:25:10.538Z,15.10
2022-09-14T19:27:40.254Z,14.95
2022-09-14T19:30:11.178Z,15.22
2022-09-14T19:32:42.208Z,15.44
2022-09-14T19:35:11.707Z,15.46
2022-09-14T19:37:41.115Z,15.45
2022-09-14T19:40:11.046Z,15.41
2022-09-14T19:42:43.320Z,15.47
2022-09-14T19:45:15.581Z,15.48
2022-09-14T19:47:46.063Z,15.47
2022-09-14T19:50:14.887Z,15.36
2022-09-14T19:52:43.698Z,15.23
2022-09-14T19:55:12.563Z,15.29
2022-09-14T19:57:41.474Z,15.03
2022-09-14T20:00:16.302Z,14.98
2022-09-14T20:02:48.587Z,14.76
2022-09-14T20:05:18.773Z,14.78
2022-09-14T20:07:47.841Z,14.61
2022-09-14T20:10:18.414Z,14.54
2022-09-14T20:12:47.878Z,14.58
2022-09-14T20:15:17.520Z,14.44
2022-09-14T20:17:48.243Z,14.33
2022-09-14T20:20:17.353Z,14.36
2022-09-14T20:22:46.566Z,14.38
2022-09-14T20:25:16.090Z,14.43
2022-09-14T20:27:44.894Z,14.43
2022-09-14T20:30:17.134Z,14.46
2022-09-14T20:32:46.679Z,14.46
2022-09-14T20:35:17.070Z,14.46
2022-09-14T20:37:45.943Z,14.31
2022-09-14T20:40:14.638Z,14.37
2022-09-14T20:42:43.534Z,14.30
2022-09-14T20:45:12.544Z,14.24
2022-09-14T20:47:41.524Z,14.46
2022-09-14T20:50:10.640Z,14.38
2022-09-14T20:52:40.828Z,14.44
2022-09-14T20:55:11.137Z,14.34
2022-09-14T20:57:39.822Z,14.26
2022-09-14T21:00:12.490Z,14.30
2022-09-14T21:02:41.323Z,14.17
2022-09-14T21:05:10.578Z,13.93
2022-09-14T21:07:40.688Z,13.95
2022-09-14T21:10:29.565Z,13.90
2022-09-14T21:13:02.128Z,13.97
2022-09-14T21:15:35.824Z,14.05
2022-09-14T21:18:06.254Z,14.08
2022-09-14T21:20:37.916Z,14.13
2022-09-14T21:23:11.115Z,14.17
2022-09-14T21:25:41.330Z,14.22
2022-09-14T21:28:10.541Z,14.07
2022-09-14T21:30:40.168Z,13.92
2022-09-14T21:33:10.818Z,13.89
2022-09-14T21:35:39.899Z,13.90
2022-09-14T21:38:11.502Z,13.82
2022-09-14T21:40:45.162Z,13.70
2022-09-14T21:43:15.026Z,13.74
2022-09-14T21:45:48.745Z,13.88
2022-09-14T21:48:19.418Z,13.74
2022-09-14T21:50:49.024Z,13.68
2022-09-14T21:53:19.509Z,13.73
2022-09-14T21:55:49.541Z,13.58
2022-09-14T21:58:19.540Z,13.77
2022-09-14T22:00:48.969Z,13.40
2022-09-14T22:03:18.726Z,13.46
2022-09-14T22:05:58.408Z,13.59
2022-09-14T22:08:31.509Z,13.72
2022-09-14T22:11:04.615Z,13.66
2022-09-14T22:13:34.049Z,13.61
2022-09-14T22:16:08.995Z,13.68
2022-09-14T22:18:43.135Z,13.74
2022-09-14T22:21:12.134Z,13.89
2022-09-14T22:23:43.168Z,13.87
2022-09-14T22:26:14.013Z,13.83
2022-09-14T22:28:43.258Z,13.75
2022-09-14T22:31:13.064Z,13.70
2022-09-14T22:33:42.838Z,13.49
2022-09-14T22:36:12.837Z,13.60
2022-09-14T22:38:45.885Z,13.64
2022-09-14T22:41:19.689Z,13.62
2022-09-14T22:43:49.916Z,13.63
2022-09-14T22:46:20.329Z,13.68
2022-09-14T22:48:50.419Z,13.70
2022-09-14T22:51:21.763Z,13.59
2022-09-14T22:53:52.818Z,13.68
2022-09-14T22:56:24.764Z,13.78
2022-09-14T22:58:54.574Z,13.80
2022-09-14T23:01:27.534Z,13.89
2022-09-14T23:03:59.119Z,13.84
2022-09-14T23:06:29.371Z,13.97
2022-09-14T23:09:01.230Z,13.95
2022-09-14T23:11:30.927Z,13.93
2022-09-14T23:14:00.363Z,13.71
2022-09-14T23:16:31.733Z,13.83
2022-09-14T23:19:02.908Z,13.92
2022-09-14T23:21:32.961Z,13.96
2022-09-14T23:24:05.687Z,13.78
2022-09-14T23:26:34.980Z,13.97
2022-09-14T23:29:05.747Z,13.81
2022-09-14T23:31:35.164Z,13.81
2022-09-14T23:34:05.912Z,13.72
2022-09-14T23:36:35.515Z,13.72
2022-09-14T23:39:05.904Z,13.66
2022-09-14T23:41:34.776Z,13.74
2022-09-14T23:44:04.232Z,13.75
2022-09-14T23:46:33.331Z,13.81
2022-09-14T23:49:02.474Z,13.13
2022-09-14T23:51:31.206Z,13.91
2022-09-14T23:53:59.955Z,13.87
2022-09-14T23:56:30.168Z,13.74
2022-09-14T23:58:59.156Z,13.55
